Time;durP1;ratioP1;P1;durP2;ratioP2;P2;SDS_P1;SDS_P2;PMS_P1;PMS_P2;Temp;Humidity;BMP_temperature;BMP_pressure;BME280_temperature;BME280_humidity;BME280_pressure;Samples;Min_cycle;Max_cycle;Signal;HPM_P1;HPM_P2
2023/11/11 00:08:28;;;;;;;21.42;4.13;;;;;;;21.45;100.00;101302.84;20902195;28;20187;-76
2023/11/11 00:18:51;;;;;;;22.17;4.22;;;;;;;21.50;100.00;101302.75;20918075;28;20102;-75
2023/11/11 00:29:14;;;;;;;22.00;4.18;;;;;;;21.53;100.00;101288.38;20937296;28;20052;-76
2023/11/11 00:39:38;;;;;;;25.35;4.50;;;;;;;21.57;100.00;101296.34;20921830;28;20073;-77
2023/11/11 00:50:01;;;;;;;19.20;3.80;;;;;;;21.55;100.00;101286.53;20954111;28;20102;-77
2023/11/11 01:00:26;;;;;;;25.05;5.10;;;;;;;21.60;100.00;101296.25;20917907;28;20045;-76
2023/11/11 01:10:48;;;;;;;17.20;3.47;;;;;;;21.58;100.00;101270.34;20917450;28;20402;-76
2023/11/11 01:21:12;;;;;;;21.35;4.38;;;;;;;21.57;100.00;101231.84;20898141;28;20486;-76
2023/11/11 01:31:35;;;;;;;20.38;3.55;;;;;;;21.57;100.00;101226.47;20939479;28;20125;-76
2023/11/11 01:41:59;;;;;;;18.20;3.58;;;;;;;21.60;100.00;101231.75;20867016;28;20041;-76
2023/11/11 01:52:22;;;;;;;20.35;3.80;;;;;;;21.58;100.00;101230.03;20901627;28;20044;-76
2023/11/11 02:02:47;;;;;;;27.65;4.22;;;;;;;21.57;100.00;101228.28;20914036;28;20054;-75
2023/11/11 02:13:11;;;;;;;20.58;5.35;;;;;;;21.48;100.00;101222.19;20921937;28;20548;-75
2023/11/11 02:23:36;;;;;;;26.58;3.80;;;;;;;21.47;100.00;101208.75;20888898;28;20076;-76
2023/11/11 02:33:58;;;;;;;24.98;5.10;;;;;;;21.46;100.00;101185.53;20917823;28;20052;-75
2023/11/11 02:44:23;;;;;;;25.83;4.15;;;;;;;21.45;100.00;101190.03;20896577;28;20049;-75
2023/11/11 02:54:45;;;;;;;23.25;4.50;;;;;;;21.55;100.00;101171.88;20910409;28;20049;-76
2023/11/11 03:05:11;;;;;;;21.27;4.45;;;;;;;21.54;100.00;101177.28;20902357;28;20051;-76
2023/11/11 03:15:33;;;;;;;19.77;3.75;;;;;;;21.55;100.00;101166.50;20933903;28;20048;-76
2023/11/11 03:25:57;;;;;;;23.35;4.30;;;;;;;21.48;100.00;101172.91;20880446;28;20068;-75
2023/11/11 03:36:21;;;;;;;18.15;4.10;;;;;;;21.48;100.00;101173.81;20916737;28;20044;-75
2023/11/11 03:46:47;;;;;;;19.05;4.38;;;;;;;21.47;100.00;101169.34;20919066;28;20131;-76
2023/11/11 03:57:11;;;;;;;20.63;3.73;;;;;;;21.45;100.00;101175.69;20923140;28;20588;-76
2023/11/11 04:07:35;;;;;;;21.63;4.25;;;;;;;21.45;100.00;101157.78;20920245;28;20482;-76
2023/11/11 04:17:57;;;;;;;21.10;3.70;;;;;;;21.48;100.00;101160.38;20899395;28;20068;-77
2023/11/11 04:28:23;;;;;;;21.88;4.35;;;;;;;21.45;100.00;101152.41;20907891;28;20041;-76
2023/11/11 04:38:46;;;;;;;17.15;3.90;;;;;;;21.49;100.00;101153.19;20928033;28;20494;-76
2023/11/11 04:49:10;;;;;;;21.15;4.38;;;;;;;21.56;100.00;101162.00;20971221;28;20114;-75
2023/11/11 04:59:32;;;;;;;14.88;4.03;;;;;;;21.58;100.00;101171.81;20907193;28;20048;-75
2023/11/11 05:09:57;;;;;;;23.80;4.63;;;;;;;21.64;100.00;101147.47;20905733;28;20106;-75
2023/11/11 05:20:21;;;;;;;22.85;4.32;;;;;;;21.69;100.00;101164.38;20942129;28;20036;-76
2023/11/11 05:30:45;;;;;;;17.65;2.72;;;;;;;21.78;100.00;101177.59;20892164;28;20056;-76
2023/11/11 05:41:07;;;;;;;19.58;4.72;;;;;;;22.08;100.00;101178.69;20906285;28;20049;-75
2023/11/11 05:51:32;;;;;;;16.67;2.60;;;;;;;22.36;100.00;101184.25;20962742;28;20052;-76
2023/11/11 06:01:54;;;;;;;26.02;4.30;;;;;;;22.58;100.00;101181.84;20914871;28;20375;-75
2023/11/11 06:12:19;;;;;;;16.38;3.28;;;;;;;22.71;100.00;101212.88;20915303;28;20049;-76
2023/11/11 06:22:42;;;;;;;15.65;3.60;;;;;;;23.05;100.00;101255.97;20909610;28;20041;-75
2023/11/11 06:33:06;;;;;;;12.25;2.40;;;;;;;23.43;100.00;101253.06;20923779;28;20037;-76
2023/11/11 06:43:29;;;;;;;15.40;2.90;;;;;;;23.71;100.00;101239.66;20863236;28;20569;-75
2023/11/11 06:53:53;;;;;;;24.80;3.80;;;;;;;24.20;100.00;101246.25;20902484;28;20119;-75
2023/11/11 07:04:15;;;;;;;9.95;2.08;;;;;;;24.53;100.00;101257.72;20889188;28;20042;-75
2023/11/11 07:14:40;;;;;;;18.42;2.65;;;;;;;24.68;100.00;101235.56;20888438;28;20057;-75
2023/11/11 07:25:03;;;;;;;14.40;2.75;;;;;;;24.82;100.00;101243.19;20862682;28;20096;-76
2023/11/11 07:35:28;;;;;;;17.33;2.75;;;;;;;25.01;100.00;101222.69;20869602;28;20053;-75
2023/11/11 07:45:50;;;;;;;25.27;4.35;;;;;;;25.27;100.00;101192.88;20875929;28;20114;-75
2023/11/11 07:56:14;;;;;;;20.17;3.28;;;;;;;25.49;100.00;101205.56;20869848;28;20049;-74
2023/11/11 08:06:37;;;;;;;27.52;3.30;;;;;;;25.63;100.00;101203.25;20852268;28;20057;-76
2023/11/11 08:17:02;;;;;;;32.00;4.68;;;;;;;25.84;100.00;101161.81;20837237;28;20053;-74
2023/11/11 08:27:24;;;;;;;41.28;6.38;;;;;;;25.77;100.00;101155.78;20877104;28;20049;-75
2023/11/11 08:37:50;;;;;;;41.00;6.60;;;;;;;26.08;100.00;101143.66;20826050;28;20049;-74
2023/11/11 08:48:13;;;;;;;31.65;3.17;;;;;;;26.08;100.00;101154.50;20850847;28;20057;-75
2023/11/11 08:58:39;;;;;;;25.70;4.45;;;;;;;26.51;100.00;101145.44;20827641;28;20057;-75
2023/11/11 09:09:02;;;;;;;24.85;3.75;;;;;;;26.66;99.66;101131.19;20822683;28;20644;-75
2023/11/11 09:19:27;;;;;;;20.30;4.82;;;;;;;26.95;95.73;101089.25;20876053;28;20498;-75
2023/11/11 09:29:50;;;;;;;25.60;4.75;;;;;;;27.16;93.82;101106.34;20881763;28;20060;-75
2023/11/11 09:40:16;;;;;;;20.15;3.08;;;;;;;27.18;84.80;101117.97;20886422;28;20406;-75
2023/11/11 09:50:38;;;;;;;16.50;2.67;;;;;;;27.24;82.37;101102.28;20861754;28;20067;-74
2023/11/11 10:01:03;;;;;;;25.45;3.90;;;;;;;26.66;91.30;101081.53;20859513;28;20497;-75
2023/11/11 10:11:26;;;;;;;27.60;4.78;;;;;;;26.78;92.34;101099.97;20807235;28;20045;-75
2023/11/11 10:21:56;;;;;;;15.95;2.25;;;;;;;26.73;88.37;101110.13;20831377;28;20174;-75
2023/11/11 10:32:19;;;;;;;15.80;3.08;;;;;;;26.81;84.10;101127.78;20861451;28;20069;-74
2023/11/11 10:42:45;;;;;;;19.67;3.80;;;;;;;26.90;85.84;101140.97;20845997;28;20167;-74
2023/11/11 10:53:09;;;;;;;21.90;3.53;;;;;;;26.71;91.66;101096.66;20835638;28;20155;-75
2023/11/11 11:03:34;;;;;;;17.80;3.13;;;;;;;26.76;87.19;101097.34;20847290;28;20058;-75
2023/11/11 11:14:08;;;;;;;21.77;3.30;;;;;;;26.91;86.02;101095.78;20866701;28;20058;-74
2023/11/11 11:24:37;;;;;;;24.90;3.13;;;;;;;27.16;84.86;101106.34;20843903;28;20038;-75
2023/11/11 11:35:27;;;;;;;20.60;3.33;;;;;;;26.95;88.70;101090.13;20800006;28;20147;-75
2023/11/11 11:45:52;;;;;;;14.57;2.70;;;;;;;26.69;90.46;101117.53;20853872;28;20115;-75
2023/11/11 11:56:29;;;;;;;22.75;3.40;;;;;;;26.66;95.89;101093.25;20833597;28;20045;-74
2023/11/11 12:06:53;;;;;;;18.88;2.72;;;;;;;26.72;96.86;101065.88;20859197;28;20566;-73
2023/11/11 12:17:17;;;;;;;21.98;4.28;;;;;;;26.61;94.98;101068.22;20872953;28;20142;-74
2023/11/11 12:27:43;;;;;;;21.70;4.10;;;;;;;26.51;98.11;101047.94;20853073;28;20054;-75
2023/11/11 12:38:22;;;;;;;20.25;2.88;;;;;;;26.30;98.48;101065.16;20870469;28;20045;-75
2023/11/11 12:48:47;;;;;;;23.35;3.85;;;;;;;26.08;100.00;101048.94;20885801;28;20433;-74
2023/11/11 12:59:10;;;;;;;13.55;2.60;;;;;;;25.82;100.00;101058.19;20841102;28;20087;-75
2023/11/11 13:09:42;;;;;;;21.30;3.75;;;;;;;25.70;100.00;101026.25;20852240;28;20047;-74
2023/11/11 13:20:07;;;;;;;17.95;3.95;;;;;;;25.65;100.00;101034.56;20841283;28;20055;-74
2023/11/11 13:30:32;;;;;;;20.52;3.08;;;;;;;25.20;100.00;101037.31;20868149;28;20056;-75
2023/11/11 13:40:54;;;;;;;21.27;3.72;;;;;;;25.06;100.00;101025.31;20837993;28;20079;-74
2023/11/11 13:51:18;;;;;;;24.77;3.88;;;;;;;24.96;100.00;101031.06;20824418;28;20045;-74
2023/11/11 14:01:42;;;;;;;16.98;3.45;;;;;;;24.53;100.00;101028.22;20864171;28;20060;-74
2023/11/11 14:12:07;;;;;;;27.25;4.13;;;;;;;24.28;100.00;101006.69;20891400;28;20547;-74
2023/11/11 14:22:30;;;;;;;29.27;4.13;;;;;;;24.24;100.00;101013.09;20820488;28;20040;-73
2023/11/11 14:32:55;;;;;;;16.95;3.30;;;;;;;24.12;100.00;101009.00;20850462;28;20041;-73
2023/11/11 14:43:18;;;;;;;25.52;5.30;;;;;;;23.95;100.00;100997.09;20833786;28;20061;-74
2023/11/11 14:53:42;;;;;;;21.35;4.10;;;;;;;23.74;100.00;100987.94;20870743;28;20053;-72
2023/11/11 15:04:06;;;;;;;16.33;3.15;;;;;;;23.61;100.00;101017.13;20822499;28;20049;-72
2023/11/11 15:14:30;;;;;;;21.63;3.67;;;;;;;23.52;100.00;101028.22;20823352;28;20049;-72
2023/11/11 15:24:53;;;;;;;23.33;4.07;;;;;;;23.39;100.00;101049.25;20844836;28;20061;-71
2023/11/11 15:35:17;;;;;;;22.02;3.20;;;;;;;23.31;100.00;101045.03;20821082;28;20067;-71
2023/11/11 15:45:40;;;;;;;16.33;3.20;;;;;;;23.23;100.00;101048.00;20882060;28;20054;-71
2023/11/11 15:56:04;;;;;;;18.77;3.80;;;;;;;23.15;100.00;101044.69;20816072;28;20629;-72
2023/11/11 16:06:27;;;;;;;21.63;3.72;;;;;;;23.13;100.00;101059.09;20826744;28;20049;-72
2023/11/11 16:16:52;;;;;;;18.15;3.15;;;;;;;23.07;100.00;101048.53;20866237;28;20612;-72
2023/11/11 16:27:15;;;;;;;26.25;4.38;;;;;;;23.01;100.00;101060.38;20865156;28;20047;-72
2023/11/11 16:37:39;;;;;;;29.70;3.95;;;;;;;22.98;100.00;101060.47;20871358;28;20058;-71
2023/11/11 16:48:01;;;;;;;20.65;3.80;;;;;;;22.93;100.00;101078.56;20866647;28;20107;-72
2023/11/11 16:58:25;;;;;;;24.42;3.78;;;;;;;22.93;100.00;101075.88;20847662;28;20367;-73
2023/11/11 17:08:49;;;;;;;20.30;3.92;;;;;;;22.86;100.00;101094.03;20872284;28;20045;-72
2023/11/11 17:19:13;;;;;;;25.55;4.40;;;;;;;22.86;100.00;101096.72;20851701;28;20108;-73
2023/11/11 17:29:36;;;;;;;13.93;3.22;;;;;;;22.81;100.00;101133.69;20860435;28;20083;-73
2023/11/11 17:40:01;;;;;;;20.67;4.35;;;;;;;22.78;100.00;101120.28;20865244;28;20056;-72
2023/11/11 17:50:23;;;;;;;27.40;4.85;;;;;;;22.72;100.00;101133.91;20866064;28;20048;-72
2023/11/11 18:00:47;;;;;;;18.60;3.10;;;;;;;22.64;100.00;101142.19;20863556;28;20064;-71
2023/11/11 18:11:11;;;;;;;21.90;3.45;;;;;;;22.61;100.00;101141.41;20855627;28;20143;-72
2023/11/11 18:21:36;;;;;;;19.83;4.68;;;;;;;22.63;100.00;101155.72;20856217;28;20048;-72
2023/11/11 18:31:58;;;;;;;21.52;3.85;;;;;;;22.56;100.00;101146.91;20848643;28;20135;-71
2023/11/11 18:42:24;;;;;;;23.33;4.35;;;;;;;22.56;100.00;101143.34;20845879;28;20069;-72
2023/11/11 18:52:47;;;;;;;27.02;4.93;;;;;;;22.52;100.00;101169.44;20870563;28;20483;-72
2023/11/11 19:03:10;;;;;;;23.75;4.03;;;;;;;22.49;100.00;101176.72;20884665;28;20064;-73
2023/11/11 19:13:33;;;;;;;23.55;3.95;;;;;;;22.49;100.00;101180.31;20887586;28;20056;-72
2023/11/11 19:23:57;;;;;;;23.35;4.00;;;;;;;22.49;100.00;101193.75;20865988;28;20057;-72
2023/11/11 19:34:20;;;;;;;27.08;4.55;;;;;;;22.41;100.00;101192.19;20873072;28;20732;-72
2023/11/11 19:44:44;;;;;;;19.42;3.25;;;;;;;22.39;100.00;101191.34;20867351;28;20049;-72
2023/11/11 19:55:09;;;;;;;25.95;4.63;;;;;;;22.33;100.00;101205.84;20855457;28;20053;-72
2023/11/11 20:05:32;;;;;;;28.08;5.10;;;;;;;22.28;100.00;101199.69;20882718;28;20056;-73
2023/11/11 20:15:56;;;;;;;23.90;4.05;;;;;;;22.25;100.00;101189.03;20903311;28;20056;-72
2023/11/11 20:26:20;;;;;;;26.77;4.35;;;;;;;22.26;100.00;101182.69;20937812;28;20134;-72
2023/11/11 20:36:45;;;;;;;27.45;5.97;;;;;;;22.27;100.00;101153.06;20937981;28;20049;-72
2023/11/11 20:47:09;;;;;;;30.02;5.97;;;;;;;22.24;100.00;101163.94;20921833;28;20254;-73
2023/11/11 20:57:32;;;;;;;25.52;4.07;;;;;;;22.15;100.00;101182.09;20897089;28;20107;-73
2023/11/11 21:07:56;;;;;;;22.02;4.07;;;;;;;22.12;100.00;101204.56;20896612;28;20048;-73
2023/11/11 21:18:18;;;;;;;23.75;4.68;;;;;;;22.10;100.00;101229.75;20914715;28;20468;-72
2023/11/11 21:28:43;;;;;;;28.42;3.75;;;;;;;22.04;100.00;101219.13;20902089;28;20052;-72
2023/11/11 21:39:10;;;;;;;30.17;5.47;;;;;;;22.01;100.00;101216.50;20938205;28;20048;-73
2023/11/11 21:49:34;;;;;;;24.15;4.47;;;;;;;22.07;100.00;101186.78;20887775;28;20067;-72
2023/11/11 21:59:57;;;;;;;25.30;4.97;;;;;;;22.08;100.00;101176.00;20933695;28;20107;-72
2023/11/11 22:10:21;;;;;;;24.60;5.30;;;;;;;22.11;100.00;101169.66;20951601;28;20056;-72
2023/11/11 22:20:48;;;;;;;26.38;5.05;;;;;;;22.06;100.00;101177.81;20903122;28;20056;-73
2023/11/11 22:31:12;;;;;;;35.60;5.60;;;;;;;22.05;100.00;101165.34;20948876;28;20447;-72
2023/11/11 22:41:35;;;;;;;27.77;4.95;;;;;;;22.04;100.00;101178.81;20909191;28;20449;-72
2023/11/11 22:51:59;;;;;;;31.00;5.97;;;;;;;22.08;100.00;101176.00;20912312;28;20049;-72
2023/11/11 23:02:21;;;;;;;30.42;5.50;;;;;;;22.09;100.00;101158.94;20910084;28;20049;-71
2023/11/11 23:12:46;;;;;;;24.92;5.70;;;;;;;22.09;100.00;101158.06;20913574;28;20045;-72
2023/11/11 23:23:10;;;;;;;26.25;5.03;;;;;;;22.06;100.00;101155.44;20907656;28;20453;-73
2023/11/11 23:33:35;;;;;;;25.88;4.70;;;;;;;22.03;100.00;101172.53;20886567;28;20071;-72
2023/11/11 23:43:58;;;;;;;21.80;4.32;;;;;;;22.03;100.00;101145.66;20940629;28;20037;-72
2023/11/11 23:54:24;;;;;;;32.85;5.65;;;;;;;22.02;100.00;101121.47;20928066;28;20098;-72
